createdAt,value
2017-03-25T00:00:06.607Z,8.61
2017-03-25T00:01:21.350Z,8.57
2017-03-25T00:02:35.841Z,8.59
2017-03-25T00:03:50.858Z,8.64
2017-03-25T00:05:04.958Z,8.52
2017-03-25T00:06:19.964Z,8.54
2017-03-25T00:07:34.155Z,8.59
2017-03-25T00:08:48.836Z,8.56
2017-03-25T00:10:03.238Z,8.54
2017-03-25T00:11:17.566Z,8.52
2017-03-25T00:12:31.648Z,8.57
2017-03-25T00:13:47.125Z,8.56
2017-03-25T00:15:01.199Z,8.53
2017-03-25T00:16:15.457Z,8.54
2017-03-25T00:17:30.755Z,8.53
2017-03-25T00:18:45.373Z,8.54
2017-03-25T00:20:00.308Z,8.53
2017-03-25T00:21:15.011Z,8.54
2017-03-25T00:22:29.499Z,8.56
2017-03-25T00:23:44.001Z,8.45
2017-03-25T00:24:58.868Z,8.54
2017-03-25T00:26:13.493Z,8.52
2017-03-25T00:27:28.300Z,8.5
2017-03-25T00:28:42.677Z,8.45
2017-03-25T00:29:57.594Z,8.41
2017-03-25T00:31:12.242Z,8.41
2017-03-25T00:32:26.705Z,8.42
2017-03-25T00:33:40.979Z,8.38
2017-03-25T00:34:55.332Z,8.46
2017-03-25T00:36:12.600Z,8.44
2017-03-25T00:37:27.582Z,8.35
2017-03-25T00:38:42.100Z,8.35
2017-03-25T00:39:56.705Z,8.32
2017-03-25T00:41:11.301Z,8.34
2017-03-25T00:42:25.757Z,8.36
2017-03-25T00:43:40.320Z,8.44
2017-03-25T00:44:55.304Z,8.42
2017-03-25T00:46:09.572Z,8.39
2017-03-25T00:47:24.346Z,8.31
2017-03-25T00:48:38.905Z,8.23
2017-03-25T00:49:53.560Z,8.18
2017-03-25T00:51:08.847Z,8.21
2017-03-25T00:52:23.319Z,8.21
2017-03-25T00:53:39.195Z,8.18
2017-03-25T00:54:53.394Z,8.16
2017-03-25T00:56:08.156Z,8.11
2017-03-25T00:57:22.526Z,8.17
2017-03-25T00:58:37.154Z,8.11
2017-03-25T00:59:52.050Z,8.18
2017-03-25T01:01:06.910Z,8.2
2017-03-25T01:02:22.138Z,8.17
2017-03-25T01:03:37.070Z,8.13
2017-03-25T01:04:51.761Z,8.17
2017-03-25T01:06:06.628Z,8.13
2017-03-25T01:07:20.724Z,8.17
2017-03-25T01:08:34.998Z,8.14
2017-03-25T01:09:49.425Z,8.13
2017-03-25T01:11:03.839Z,8.18
2017-03-25T01:12:17.952Z,8.13
2017-03-25T01:13:32.274Z,8.11
2017-03-25T01:14:47.453Z,8.11
2017-03-25T01:16:01.622Z,8.14
2017-03-25T01:17:15.638Z,8.13
2017-03-25T01:18:30.289Z,8.06
2017-03-25T01:19:44.787Z,8.05
2017-03-25T01:20:59.415Z,8.02
2017-03-25T01:22:14.729Z,8.08
2017-03-25T01:23:29.110Z,7.99
2017-03-25T01:24:43.650Z,8.06
2017-03-25T01:25:58.848Z,8.06
2017-03-25T01:27:13.149Z,8.02
2017-03-25T01:28:27.469Z,7.93
2017-03-25T01:29:42.615Z,8.05
2017-03-25T01:31:01.827Z,7.98
2017-03-25T01:32:21.310Z,7.99
2017-03-25T01:33:39.504Z,7.91
2017-03-25T01:34:55.342Z,7.91
2017-03-25T01:36:15.516Z,7.98
2017-03-25T01:37:34.305Z,7.87
2017-03-25T01:38:52.547Z,7.96
2017-03-25T01:40:10.705Z,7.99
2017-03-25T01:41:26.471Z,7.99
2017-03-25T01:42:42.710Z,7.87
2017-03-25T01:44:00.773Z,7.81
2017-03-25T01:45:18.864Z,7.84
2017-03-25T01:46:33.670Z,7.8
2017-03-25T01:47:49.331Z,7.77
2017-03-25T01:49:04.001Z,7.78
2017-03-25T01:50:18.055Z,7.77
2017-03-25T01:51:32.322Z,7.8
2017-03-25T01:52:46.872Z,7.72
2017-03-25T01:54:03.684Z,7.77
2017-03-25T01:55:18.452Z,7.8
2017-03-25T01:56:32.629Z,7.7
2017-03-25T01:57:46.960Z,7.69
2017-03-25T01:59:01.656Z,7.7
2017-03-25T02:00:15.848Z,7.7
2017-03-25T02:01:30.149Z,7.67
2017-03-25T02:02:44.238Z,7.72
2017-03-25T02:03:58.564Z,7.64
2017-03-25T02:05:12.680Z,7.61
2017-03-25T02:06:27.323Z,7.58
2017-03-25T02:07:41.379Z,7.59
2017-03-25T02:08:55.755Z,7.56
2017-03-25T02:10:10.214Z,7.53
2017-03-25T02:11:24.722Z,7.53
2017-03-25T02:12:38.885Z,7.61
2017-03-25T02:13:53.485Z,7.56
2017-03-25T02:15:13.880Z,7.47
2017-03-25T02:16:28.643Z,7.47
2017-03-25T02:17:42.644Z,7.4
2017-03-25T02:18:57.217Z,7.47
2017-03-25T02:20:11.301Z,7.4
2017-03-25T02:21:25.722Z,7.5
2017-03-25T02:22:39.783Z,7.41
2017-03-25T02:23:54.872Z,7.41
2017-03-25T02:25:08.918Z,7.44
2017-03-25T02:26:24.010Z,7.53
2017-03-25T02:27:38.536Z,7.46
2017-03-25T02:28:52.786Z,7.5
2017-03-25T02:30:06.967Z,7.48
2017-03-25T02:31:21.245Z,7.5
2017-03-25T02:32:35.655Z,7.4
2017-03-25T02:33:49.929Z,7.4
2017-03-25T02:35:04.988Z,7.44
2017-03-25T02:36:19.505Z,7.44
2017-03-25T02:37:33.737Z,7.46
2017-03-25T02:38:48.136Z,7.4
2017-03-25T02:40:03.857Z,7.4
2017-03-25T02:41:22.524Z,7.39
2017-03-25T02:42:37.513Z,7.36
2017-03-25T02:43:52.232Z,7.37
2017-03-25T02:45:06.752Z,7.4
2017-03-25T02:46:21.477Z,7.39
2017-03-25T02:47:36.089Z,7.36
2017-03-25T02:48:50.709Z,7.44
2017-03-25T02:50:06.307Z,7.33
2017-03-25T02:51:22.159Z,7.43
2017-03-25T02:52:36.359Z,7.31
2017-03-25T02:53:50.606Z,7.31
2017-03-25T02:55:04.680Z,7.28
2017-03-25T02:56:19.658Z,7.28
2017-03-25T02:57:34.424Z,7.25
2017-03-25T02:58:49.143Z,7.28
2017-03-25T03:00:03.244Z,7.32
2017-03-25T03:01:17.791Z,7.26
2017-03-25T03:02:31.915Z,7.28
2017-03-25T03:03:46.585Z,7.22
2017-03-25T03:05:00.845Z,7.28
2017-03-25T03:06:15.579Z,7.14
2017-03-25T03:07:29.679Z,7.19
2017-03-25T03:08:43.978Z,7.18
2017-03-25T03:09:58.086Z,7.14
2017-03-25T03:11:14.921Z,7.08
2017-03-25T03:12:29.365Z,7.14
2017-03-25T03:13:43.624Z,7.13
2017-03-25T03:14:57.718Z,7.08
2017-03-25T03:16:12.178Z,7.21
2017-03-25T03:17:27.026Z,7.14
2017-03-25T03:18:41.427Z,7.14
2017-03-25T03:19:55.637Z,7.18
2017-03-25T03:21:09.859Z,7.11
2017-03-25T03:22:23.937Z,7.11
2017-03-25T03:23:38.624Z,7.11
2017-03-25T03:24:56.371Z,7.11
2017-03-25T03:26:10.694Z,7.11
2017-03-25T03:27:26.064Z,7.15
2017-03-25T03:28:40.959Z,7.1
2017-03-25T03:29:54.973Z,7.1
2017-03-25T03:31:09.157Z,6.97
2017-03-25T03:32:23.137Z,7.03
2017-03-25T03:33:38.078Z,7.05
2017-03-25T03:34:52.113Z,7.04
2017-03-25T03:36:15.612Z,7.01
2017-03-25T03:37:29.921Z,6.97
2017-03-25T03:38:44.400Z,6.97
2017-03-25T03:39:58.835Z,7
2017-03-25T03:41:13.026Z,6.96
2017-03-25T03:42:27.057Z,6.96
2017-03-25T03:43:41.962Z,7.03
2017-03-25T03:44:56.333Z,6.93
2017-03-25T03:46:10.503Z,6.95
2017-03-25T03:47:24.555Z,7.03
2017-03-25T03:48:39.158Z,6.92
2017-03-25T03:49:53.674Z,6.93
2017-03-25T03:51:08.469Z,7
2017-03-25T03:52:22.665Z,6.9
2017-03-25T03:53:36.857Z,6.93
2017-03-25T03:54:51.230Z,6.89
2017-03-25T03:56:06.590Z,6.89
2017-03-25T03:57:21.047Z,6.92
2017-03-25T03:58:36.657Z,6.95
2017-03-25T03:59:51.767Z,6.85
2017-03-25T04:01:06.409Z,6.92
2017-03-25T04:02:20.763Z,6.9
2017-03-25T04:03:35.791Z,6.89
2017-03-25T04:04:50.942Z,6.93
2017-03-25T04:06:05.802Z,6.92
2017-03-25T04:07:19.774Z,6.96
2017-03-25T04:08:34.281Z,6.93
2017-03-25T04:09:48.294Z,6.97
2017-03-25T04:11:02.770Z,6.97
2017-03-25T04:12:17.597Z,6.95
2017-03-25T04:13:31.893Z,6.83
2017-03-25T04:14:46.268Z,6.96
2017-03-25T04:16:00.509Z,7
2017-03-25T04:17:14.691Z,6.85
2017-03-25T04:18:28.905Z,6.95
2017-03-25T04:19:42.988Z,6.96
2017-03-25T04:20:57.561Z,6.97
2017-03-25T04:22:11.745Z,6.89
2017-03-25T04:23:25.979Z,6.96
2017-03-25T04:24:40.400Z,6.93
2017-03-25T04:25:55.451Z,6.93
2017-03-25T04:27:09.864Z,6.9
2017-03-25T04:28:26.581Z,6.87
2017-03-25T04:29:40.681Z,6.83
2017-03-25T04:30:55.621Z,6.86
2017-03-25T04:32:09.631Z,6.83
2017-03-25T04:33:23.868Z,6.92
2017-03-25T04:34:38.009Z,6.85
2017-03-25T04:35:52.548Z,6.85
2017-03-25T04:37:06.813Z,6.85
2017-03-25T04:38:22.041Z,6.82
2017-03-25T04:39:37.612Z,6.82
2017-03-25T04:40:53.407Z,6.87
2017-03-25T04:42:08.313Z,6.85
2017-03-25T04:43:22.469Z,6.87
2017-03-25T04:44:38.250Z,6.85
2017-03-25T04:45:53.574Z,6.82
2017-03-25T04:47:09.152Z,6.89
2017-03-25T04:48:24.729Z,6.78
2017-03-25T04:49:39.547Z,6.8
2017-03-25T04:50:53.907Z,6.75
2017-03-25T04:52:07.896Z,6.77
2017-03-25T04:53:22.174Z,6.7
2017-03-25T04:54:36.229Z,6.8
2017-03-25T04:55:50.686Z,6.7
2017-03-25T04:57:05.244Z,6.71
2017-03-25T04:58:19.512Z,6.77
2017-03-25T04:59:33.569Z,6.74
2017-03-25T05:00:47.804Z,6.78
2017-03-25T05:02:02.219Z,6.74
2017-03-25T05:03:16.531Z,6.78
2017-03-25T05:04:30.947Z,6.82
2017-03-25T05:05:45.353Z,6.7
2017-03-25T05:06:59.865Z,6.77
2017-03-25T05:08:14.745Z,6.77
2017-03-25T05:09:29.192Z,6.74
2017-03-25T05:10:43.808Z,6.74
2017-03-25T05:11:59.056Z,6.78
2017-03-25T05:13:13.438Z,6.75
2017-03-25T05:14:27.422Z,6.75
2017-03-25T05:15:41.626Z,6.68
2017-03-25T05:16:56.133Z,6.72
2017-03-25T05:18:10.370Z,6.72
2017-03-25T05:19:24.469Z,6.74
2017-03-25T05:20:39.139Z,6.78
2017-03-25T05:21:53.657Z,6.74
2017-03-25T05:23:07.810Z,6.8
2017-03-25T05:24:22.390Z,6.85
2017-03-25T05:25:37.052Z,6.85
2017-03-25T05:26:51.582Z,6.78
2017-03-25T05:28:06.174Z,6.82
2017-03-25T05:29:20.262Z,6.82
2017-03-25T05:30:34.932Z,6.87
2017-03-25T05:31:49.131Z,6.93
2017-03-25T05:33:03.956Z,6.9
2017-03-25T05:34:18.469Z,6.89
2017-03-25T05:35:33.142Z,6.86
2017-03-25T05:36:47.590Z,6.9
2017-03-25T05:38:02.218Z,6.93
2017-03-25T05:39:16.319Z,6.86
2017-03-25T05:40:31.368Z,6.83
2017-03-25T05:41:46.254Z,6.9
2017-03-25T05:43:00.512Z,6.96
2017-03-25T05:44:15.693Z,6.93
2017-03-25T05:45:32.524Z,6.93
2017-03-25T05:46:46.667Z,6.92
2017-03-25T05:48:02.027Z,7
2017-03-25T05:49:17.101Z,6.93
2017-03-25T05:50:31.323Z,6.93
2017-03-25T05:51:45.886Z,6.95
2017-03-25T05:53:01.013Z,7.01
2017-03-25T05:54:15.544Z,7.04
2017-03-25T05:55:30.289Z,7.04
2017-03-25T05:56:44.641Z,7.01
2017-03-25T05:57:59.071Z,7.08
2017-03-25T05:59:14.093Z,6.97
2017-03-25T06:00:28.785Z,7
2017-03-25T06:01:42.947Z,7.14
2017-03-25T06:02:57.253Z,7.14
2017-03-25T06:04:11.780Z,7.19
2017-03-25T06:05:26.908Z,7.13
2017-03-25T06:06:41.594Z,7.11
2017-03-25T06:07:56.184Z,7.21
2017-03-25T06:09:10.584Z,7.13
2017-03-25T06:10:25.371Z,7.11
2017-03-25T06:11:39.822Z,7.1
2017-03-25T06:12:54.494Z,7.11
2017-03-25T06:14:09.362Z,7.11
2017-03-25T06:15:24.002Z,7.14
2017-03-25T06:16:38.151Z,7.13
2017-03-25T06:18:09.445Z,7.31
2017-03-25T06:19:24.470Z,7.25
2017-03-25T06:20:38.840Z,7.29
2017-03-25T06:21:53.759Z,7.25
2017-03-25T06:23:08.922Z,7.33
2017-03-25T06:24:23.596Z,7.29
2017-03-25T06:25:37.618Z,7.33
2017-03-25T06:26:52.612Z,7.41
2017-03-25T06:28:06.849Z,7.33
2017-03-25T06:29:21.507Z,7.31
2017-03-25T06:30:36.078Z,7.33
2017-03-25T06:31:50.912Z,7.28
2017-03-25T06:33:06.472Z,7.39
2017-03-25T06:34:21.544Z,7.44
2017-03-25T06:35:36.352Z,7.44
2017-03-25T06:36:51.193Z,7.48
2017-03-25T06:38:05.600Z,7.48
2017-03-25T06:39:20.671Z,7.53
2017-03-25T06:40:35.104Z,7.64
2017-03-25T06:41:49.670Z,7.74
2017-03-25T06:43:05.568Z,7.77
2017-03-25T06:44:20.601Z,7.66
2017-03-25T06:45:36.960Z,7.69
2017-03-25T06:46:53.656Z,7.7
2017-03-25T06:48:09.860Z,7.74
2017-03-25T06:49:26.069Z,7.8
2017-03-25T06:50:41.527Z,7.88
2017-03-25T06:51:57.680Z,7.84
2017-03-25T06:53:11.855Z,7.88
2017-03-25T06:54:26.283Z,7.93
2017-03-25T06:55:41.064Z,7.84
2017-03-25T06:56:55.802Z,7.96
2017-03-25T06:58:11.538Z,7.91
2017-03-25T06:59:25.970Z,8.05
2017-03-25T07:00:40.033Z,7.93
2017-03-25T07:01:54.974Z,8.03
2017-03-25T07:03:11.718Z,8.01
2017-03-25T07:04:26.650Z,8.05
2017-03-25T07:05:41.009Z,8.02
2017-03-25T07:06:55.139Z,8.14
2017-03-25T07:08:09.193Z,8.2
2017-03-25T07:09:24.208Z,8.16
2017-03-25T07:10:39.185Z,8.13
2017-03-25T07:11:53.469Z,8.16
2017-03-25T07:13:07.512Z,8.18
2017-03-25T07:14:22.748Z,8.18
2017-03-25T07:15:37.147Z,8.21
2017-03-25T07:16:51.794Z,8.21
2017-03-25T07:18:06.585Z,8.21
2017-03-25T07:19:21.165Z,8.18
2017-03-25T07:20:35.604Z,8.35
2017-03-25T07:21:50.061Z,8.27
2017-03-25T07:23:04.553Z,8.32
2017-03-25T07:24:18.792Z,8.39
2017-03-25T07:25:32.867Z,8.34
2017-03-25T07:26:48.359Z,8.31
2017-03-25T07:28:02.334Z,8.36
2017-03-25T07:29:17.592Z,8.42
2017-03-25T07:30:33.018Z,8.32
2017-03-25T07:31:47.681Z,8.35
2017-03-25T07:33:02.071Z,8.45
2017-03-25T07:34:16.701Z,8.52
2017-03-25T07:35:31.436Z,8.45
2017-03-25T07:36:45.692Z,8.39
2017-03-25T07:38:00.791Z,8.42
2017-03-25T07:39:16.085Z,8.46
2017-03-25T07:40:30.848Z,8.63
2017-03-25T07:41:45.181Z,8.71
2017-03-25T07:42:59.662Z,8.75
2017-03-25T07:44:14.220Z,8.72
2017-03-25T07:45:28.547Z,8.86
2017-03-25T07:46:43.172Z,8.84
2017-03-25T07:47:57.715Z,8.87
2017-03-25T07:49:12.545Z,8.92
2017-03-25T07:50:27.371Z,8.96
2017-03-25T07:51:42.411Z,9.08
2017-03-25T07:52:56.622Z,9.09
2017-03-25T07:54:11.328Z,9.18
2017-03-25T07:55:25.534Z,9.22
2017-03-25T07:56:40.505Z,9.33
2017-03-25T07:57:54.850Z,9.33
2017-03-25T07:59:09.188Z,9.27
2017-03-25T08:00:23.316Z,9.27
2017-03-25T08:01:37.995Z,9.37
2017-03-25T08:02:53.291Z,9.34
2017-03-25T08:04:09.049Z,9.45
2017-03-25T08:05:23.680Z,9.47
2017-03-25T08:06:38.378Z,9.52
2017-03-25T08:07:53.174Z,9.55
2017-03-25T08:09:07.357Z,9.69
2017-03-25T08:10:22.574Z,9.69
2017-03-25T08:11:37.707Z,9.69
2017-03-25T08:12:52.400Z,9.66
2017-03-25T08:14:06.567Z,9.77
2017-03-25T08:15:20.619Z,9.77
2017-03-25T08:16:36.001Z,9.85
2017-03-25T08:17:50.374Z,9.87
2017-03-25T08:19:06.545Z,9.99
2017-03-25T08:20:22.108Z,9.92
2017-03-25T08:21:35.848Z,9.91
2017-03-25T08:22:49.567Z,10.05
2017-03-25T08:24:03.960Z,10.09
2017-03-25T08:25:17.378Z,10.25
2017-03-25T08:26:31.407Z,10.18
2017-03-25T08:27:45.431Z,10.09
2017-03-25T08:28:59.258Z,10.23
2017-03-25T08:30:12.825Z,10.2
2017-03-25T08:31:26.531Z,10.2
2017-03-25T08:32:40.586Z,10.23
2017-03-25T08:33:54.008Z,10.24
2017-03-25T08:35:07.384Z,10.23
2017-03-25T08:36:20.928Z,10.25
2017-03-25T08:37:34.549Z,10.23
2017-03-25T08:38:48.591Z,10.27
2017-03-25T08:40:01.946Z,10.21
2017-03-25T08:41:15.601Z,10.21
2017-03-25T08:42:29.290Z,10.23
2017-03-25T08:43:43.962Z,10.24
2017-03-25T08:44:57.701Z,10.27
2017-03-25T08:46:11.525Z,10.42
2017-03-25T08:47:25.433Z,10.28
2017-03-25T08:48:39.683Z,10.41
2017-03-25T08:49:55.000Z,10.43
2017-03-25T08:51:08.572Z,10.39
2017-03-25T08:52:22.406Z,10.42
2017-03-25T08:53:37.203Z,10.36
2017-03-25T08:54:52.697Z,10.38
2017-03-25T08:56:07.525Z,10.34
2017-03-25T08:57:21.721Z,10.43
2017-03-25T08:58:35.634Z,10.43
2017-03-25T08:59:49.870Z,10.51
2017-03-25T09:01:04.951Z,10.61
2017-03-25T09:02:18.785Z,10.75
2017-03-25T09:03:32.757Z,10.79
2017-03-25T09:04:47.265Z,10.87
2017-03-25T09:06:13.350Z,10.95
2017-03-25T09:07:27.183Z,11.07
2017-03-25T09:08:40.718Z,11.16
2017-03-25T09:09:54.384Z,11.15
2017-03-25T09:11:08.054Z,11.18
2017-03-25T09:12:22.022Z,11.07
2017-03-25T09:13:36.022Z,11.04
2017-03-25T09:14:50.037Z,11.04
2017-03-25T09:16:03.809Z,11.07
2017-03-25T09:17:17.466Z,11.04
2017-03-25T09:18:31.080Z,11.08
2017-03-25T09:19:44.523Z,11.05
2017-03-25T09:20:58.196Z,11.05
2017-03-25T09:22:11.596Z,11.04
2017-03-25T09:23:25.702Z,11.04
2017-03-25T09:24:39.339Z,11.16
2017-03-25T09:25:53.106Z,11.38
2017-03-25T09:27:06.516Z,11.44
2017-03-25T09:28:20.056Z,11.51
2017-03-25T09:29:33.894Z,11.48
2017-03-25T09:30:47.466Z,11.52
2017-03-25T09:32:01.148Z,11.49
2017-03-25T09:33:14.665Z,11.53
2017-03-25T09:34:28.685Z,11.7
2017-03-25T09:35:42.793Z,11.63
2017-03-25T09:36:59.097Z,11.58
2017-03-25T09:38:12.583Z,11.58
2017-03-25T09:39:26.382Z,11.59
2017-03-25T09:40:40.239Z,11.71
2017-03-25T09:41:53.635Z,11.74
2017-03-25T09:43:07.648Z,11.74
2017-03-25T09:44:22.069Z,11.8
2017-03-25T09:46:05.909Z,12.02
2017-03-25T09:47:19.703Z,12.1
2017-03-25T09:48:33.115Z,12.15
2017-03-25T09:49:47.101Z,12.15
2017-03-25T09:51:00.776Z,12.32
2017-03-25T09:52:15.047Z,12.33
2017-03-25T09:53:29.579Z,12.3
2017-03-25T09:54:43.539Z,12.21
2017-03-25T09:55:58.725Z,12.17
2017-03-25T09:57:12.404Z,12.17
2017-03-25T09:58:26.207Z,12.23
2017-03-25T09:59:40.988Z,12.25
2017-03-25T10:00:54.571Z,12.44
2017-03-25T10:02:09.157Z,12.4
2017-03-25T10:03:22.575Z,12.43
2017-03-25T10:04:36.736Z,12.72
2017-03-25T10:05:51.209Z,12.69
2017-03-25T10:07:05.497Z,12.72
2017-03-25T10:08:20.132Z,12.58
2017-03-25T10:09:34.238Z,12.65
2017-03-25T10:10:48.831Z,12.81
2017-03-25T10:12:03.453Z,12.86
2017-03-25T10:13:17.322Z,12.86
2017-03-25T10:14:50.468Z,12.84
2017-03-25T10:16:05.835Z,12.95
2017-03-25T10:17:19.792Z,13.02
2017-03-25T10:18:34.675Z,13.09
2017-03-25T10:19:48.253Z,13.16
2017-03-25T10:21:02.167Z,13.12
2017-03-25T10:22:16.299Z,12.99
2017-03-25T10:23:30.365Z,13.17
2017-03-25T10:24:43.831Z,13.3
2017-03-25T10:25:57.512Z,13.52
2017-03-25T10:27:11.821Z,13.61
2017-03-25T10:28:27.634Z,13.5
2017-03-25T10:29:42.190Z,13.55
2017-03-25T10:30:55.793Z,13.39
2017-03-25T10:32:09.386Z,13.21
2017-03-25T10:33:23.153Z,13.24
2017-03-25T10:34:37.374Z,13.36
2017-03-25T10:35:50.892Z,13.46
2017-03-25T10:37:04.410Z,13.55
2017-03-25T10:38:17.994Z,13.57
2017-03-25T10:39:31.494Z,13.71
2017-03-25T10:40:45.708Z,13.73
2017-03-25T10:41:59.452Z,13.85
2017-03-25T10:43:13.404Z,13.91
2017-03-25T10:44:30.107Z,13.83
2017-03-25T10:45:57.253Z,13.82
2017-03-25T10:47:11.759Z,13.76
2017-03-25T10:48:25.495Z,13.76
2017-03-25T10:49:39.254Z,13.85
2017-03-25T10:50:53.226Z,13.87
2017-03-25T10:52:08.307Z,13.75
2017-03-25T10:53:22.236Z,13.76
2017-03-25T10:54:38.784Z,13.73
2017-03-25T10:55:53.281Z,13.89
2017-03-25T10:57:06.915Z,13.78
2017-03-25T10:58:21.413Z,13.86
2017-03-25T10:59:35.583Z,14.03
2017-03-25T11:00:49.828Z,14.03
2017-03-25T11:02:03.604Z,13.93
2017-03-25T11:03:17.240Z,14
2017-03-25T11:04:30.714Z,14.05
2017-03-25T11:05:44.542Z,14.13
2017-03-25T11:06:57.967Z,14.01
2017-03-25T11:08:11.571Z,14.04
2017-03-25T11:09:25.031Z,14.19
2017-03-25T11:10:38.602Z,14.2
2017-03-25T11:11:53.080Z,14.15
2017-03-25T11:13:07.011Z,14.31
2017-03-25T11:14:20.388Z,14.33
2017-03-25T11:15:33.922Z,14.23
2017-03-25T11:16:47.655Z,14.26
2017-03-25T11:18:01.530Z,14.23
2017-03-25T11:19:14.976Z,14.38
2017-03-25T11:20:28.431Z,14.45
2017-03-25T11:21:42.562Z,14.43
2017-03-25T11:22:56.327Z,14.41
2017-03-25T11:24:24.780Z,14.45
2017-03-25T11:25:38.576Z,14.56
2017-03-25T11:26:52.234Z,14.55
2017-03-25T11:28:05.973Z,14.61
2017-03-25T11:29:19.360Z,14.63
2017-03-25T11:30:33.401Z,14.67
2017-03-25T11:31:47.676Z,14.74
2017-03-25T11:33:01.107Z,14.89
2017-03-25T11:34:14.536Z,14.97
2017-03-25T11:35:27.976Z,15.08
2017-03-25T11:36:41.590Z,14.96
2017-03-25T11:38:08.193Z,15
2017-03-25T11:39:21.596Z,15.05
2017-03-25T11:40:35.015Z,15.05
2017-03-25T11:41:48.861Z,15.02
2017-03-25T11:43:02.920Z,15.08
2017-03-25T11:44:16.330Z,15.02
2017-03-25T11:45:30.069Z,15.05
2017-03-25T11:46:43.407Z,15.05
2017-03-25T11:47:56.825Z,15.07
2017-03-25T11:49:10.181Z,15.05
2017-03-25T11:50:23.789Z,15.12
2017-03-25T11:51:37.717Z,15.14
2017-03-25T11:52:51.907Z,15.15
2017-03-25T11:54:05.296Z,15.1
2017-03-25T11:55:19.436Z,15.17
2017-03-25T11:56:32.985Z,15.14
2017-03-25T11:57:47.010Z,15.23
2017-03-25T11:59:00.508Z,15.43
2017-03-25T12:00:14.146Z,15.51
2017-03-25T12:01:27.623Z,15.39
2017-03-25T12:02:41.543Z,15.54
2017-03-25T12:03:55.771Z,15.54
2017-03-25T12:05:09.262Z,15.57
2017-03-25T12:06:23.479Z,15.62
2017-03-25T12:07:37.511Z,15.63
2017-03-25T12:08:51.187Z,15.73
2017-03-25T12:10:04.974Z,15.8
2017-03-25T12:11:20.796Z,15.8
2017-03-25T12:12:35.024Z,15.72
2017-03-25T12:13:49.798Z,15.72
2017-03-25T12:15:04.446Z,15.63
2017-03-25T12:16:18.506Z,15.55
2017-03-25T12:17:32.711Z,15.59
2017-03-25T12:18:47.206Z,15.44
2017-03-25T12:20:00.978Z,15.54
2017-03-25T12:21:14.819Z,15.57
2017-03-25T12:22:28.991Z,15.66
2017-03-25T12:23:42.522Z,15.72
2017-03-25T12:24:56.224Z,15.67
2017-03-25T12:26:09.902Z,15.78
2017-03-25T12:27:24.016Z,15.8
2017-03-25T12:28:38.357Z,15.78
2017-03-25T12:29:52.604Z,15.76
2017-03-25T12:31:06.513Z,15.75
2017-03-25T12:32:20.251Z,15.81
2017-03-25T12:33:33.654Z,15.85
2017-03-25T12:34:47.820Z,15.87
2017-03-25T12:36:01.216Z,15.96
2017-03-25T12:37:15.421Z,16.02
2017-03-25T12:38:29.666Z,15.84
2017-03-25T12:39:43.213Z,15.85
2017-03-25T12:40:57.832Z,15.92
2017-03-25T12:42:11.702Z,15.87
2017-03-25T12:43:25.163Z,15.9
2017-03-25T12:44:39.083Z,15.88
2017-03-25T12:45:52.501Z,15.87
2017-03-25T12:47:06.925Z,15.9
2017-03-25T12:48:20.633Z,15.96
2017-03-25T12:49:34.527Z,15.96
2017-03-25T12:50:47.953Z,15.83
2017-03-25T12:52:02.110Z,15.85
2017-03-25T12:53:15.908Z,15.88
2017-03-25T12:54:29.885Z,15.92
2017-03-25T12:55:43.719Z,15.78
2017-03-25T12:56:57.635Z,15.96
2017-03-25T12:58:10.959Z,16.17
2017-03-25T12:59:40.606Z,16.31
2017-03-25T13:00:53.980Z,16.26
2017-03-25T13:02:07.472Z,16.17
2017-03-25T13:03:21.197Z,16.16
2017-03-25T13:04:43.753Z,16.22
2017-03-25T13:05:57.114Z,16.08
2017-03-25T13:07:10.538Z,16.13
2017-03-25T13:08:23.958Z,16.06
2017-03-25T13:09:37.682Z,16.17
2017-03-25T13:10:51.083Z,16.18
2017-03-25T13:12:04.890Z,16.25
2017-03-25T13:13:18.284Z,16.21
2017-03-25T13:14:32.046Z,16.28
2017-03-25T13:15:45.522Z,16.21
2017-03-25T13:16:59.467Z,16.13
2017-03-25T13:18:12.854Z,16.18
2017-03-25T13:19:26.371Z,16.08
2017-03-25T13:20:40.162Z,16.22
2017-03-25T13:21:54.561Z,16.22
2017-03-25T13:23:07.921Z,16.29
2017-03-25T13:24:21.758Z,16.4
2017-03-25T13:25:35.141Z,16.31
2017-03-25T13:26:48.630Z,16.34
2017-03-25T13:28:04.142Z,16.32
2017-03-25T13:29:17.684Z,16.29
2017-03-25T13:30:31.334Z,16.24
2017-03-25T13:31:44.839Z,16.21
2017-03-25T13:32:58.566Z,16.13
2017-03-25T13:34:12.179Z,16.24
2017-03-25T13:35:26.083Z,16.24
2017-03-25T13:36:40.673Z,16.22
2017-03-25T13:37:54.641Z,16.18
2017-03-25T13:39:09.059Z,16.34
2017-03-25T13:40:22.748Z,16.26
2017-03-25T13:41:36.521Z,16.21
2017-03-25T13:42:49.902Z,16.21
2017-03-25T13:44:03.939Z,16.25
2017-03-25T13:45:17.423Z,16.24
2017-03-25T13:46:30.880Z,16.21
2017-03-25T13:47:44.513Z,16.21
2017-03-25T13:48:58.972Z,16.34
2017-03-25T13:50:12.309Z,16.32
2017-03-25T13:51:38.843Z,16.4
2017-03-25T13:52:52.920Z,16.44
2017-03-25T13:54:06.501Z,16.37
2017-03-25T13:55:19.962Z,16.36
2017-03-25T13:56:33.521Z,16.4
2017-03-25T13:57:46.925Z,16.37
2017-03-25T13:59:01.161Z,16.4
2017-03-25T14:00:14.903Z,16.31
2017-03-25T14:01:28.996Z,16.36
2017-03-25T14:02:42.333Z,16.4
2017-03-25T14:03:56.485Z,16.43
2017-03-25T14:05:10.108Z,16.34
2017-03-25T14:06:23.938Z,16.43
2017-03-25T14:07:37.592Z,16.26
2017-03-25T14:08:51.850Z,16.4
2017-03-25T14:10:05.192Z,16.41
2017-03-25T14:11:19.787Z,16.46
2017-03-25T14:12:33.139Z,16.44
2017-03-25T14:13:46.653Z,16.58
2017-03-25T14:15:00.386Z,16.46
2017-03-25T14:16:14.282Z,16.47
2017-03-25T14:17:27.807Z,16.43
2017-03-25T14:18:41.741Z,16.47
2017-03-25T14:19:55.587Z,16.55
2017-03-25T14:21:22.869Z,16.5
2017-03-25T14:22:36.343Z,16.46
2017-03-25T14:23:50.055Z,16.47
2017-03-25T14:25:03.789Z,16.4
2017-03-25T14:26:17.236Z,16.49
2017-03-25T14:27:30.804Z,16.4
2017-03-25T14:28:53.975Z,16.41
2017-03-25T14:30:07.343Z,16.5
2017-03-25T14:31:20.816Z,16.57
2017-03-25T14:32:34.145Z,16.43
2017-03-25T14:33:47.565Z,16.51
2017-03-25T14:35:00.884Z,16.47
2017-03-25T14:36:14.788Z,16.44
2017-03-25T14:37:28.262Z,16.5
2017-03-25T14:38:41.755Z,16.47
2017-03-25T14:39:55.096Z,16.57
2017-03-25T14:41:09.393Z,16.54
2017-03-25T14:42:24.061Z,16.65
2017-03-25T14:43:37.619Z,16.66
2017-03-25T14:44:53.455Z,16.66
2017-03-25T14:46:07.255Z,16.76
2017-03-25T14:47:21.104Z,16.76
2017-03-25T14:48:35.254Z,16.73
2017-03-25T14:49:48.742Z,16.68
2017-03-25T14:51:02.506Z,16.73
2017-03-25T14:52:15.951Z,16.69
2017-03-25T14:53:29.532Z,16.73
2017-03-25T14:54:43.430Z,16.74
2017-03-25T14:55:57.278Z,16.68
2017-03-25T14:57:10.962Z,16.65
2017-03-25T14:58:24.558Z,16.74
2017-03-25T14:59:37.935Z,16.76
2017-03-25T15:00:52.366Z,16.68
2017-03-25T15:02:05.723Z,16.66
2017-03-25T15:03:19.653Z,16.72
2017-03-25T15:04:33.140Z,16.73
2017-03-25T15:05:46.939Z,16.8
2017-03-25T15:07:00.702Z,16.91
2017-03-25T15:08:14.499Z,16.91
2017-03-25T15:09:27.926Z,16.92
2017-03-25T15:10:42.140Z,16.92
2017-03-25T15:11:55.829Z,16.97
2017-03-25T15:13:09.801Z,16.94
2017-03-25T15:14:23.610Z,16.74
2017-03-25T15:15:37.213Z,16.87
2017-03-25T15:16:50.838Z,16.87
2017-03-25T15:18:04.914Z,16.91
2017-03-25T15:19:18.668Z,16.84
2017-03-25T15:20:32.908Z,16.91
2017-03-25T15:21:46.341Z,16.87
2017-03-25T15:22:59.872Z,16.73
2017-03-25T15:24:15.010Z,16.83
2017-03-25T15:25:29.311Z,16.86
2017-03-25T15:26:42.850Z,16.89
2017-03-25T15:27:56.714Z,16.87
2017-03-25T15:29:10.610Z,16.92
2017-03-25T15:30:24.659Z,16.98
2017-03-25T15:31:38.473Z,16.92
2017-03-25T15:32:52.953Z,16.87
2017-03-25T15:34:07.194Z,16.89
2017-03-25T15:35:21.725Z,16.87
2017-03-25T15:36:35.273Z,16.89
2017-03-25T15:37:49.210Z,16.86
2017-03-25T15:39:03.194Z,16.91
2017-03-25T15:40:17.653Z,16.92
2017-03-25T15:41:31.360Z,16.82
2017-03-25T15:42:45.251Z,16.83
2017-03-25T15:43:59.992Z,16.89
2017-03-25T15:45:13.597Z,16.79
2017-03-25T15:46:27.665Z,16.87
2017-03-25T15:47:41.664Z,16.87
2017-03-25T15:48:55.761Z,16.8
2017-03-25T15:50:10.571Z,16.94
2017-03-25T15:51:24.391Z,16.92
2017-03-25T15:52:38.982Z,16.79
2017-03-25T15:53:52.752Z,16.92
2017-03-25T15:55:22.501Z,16.95
2017-03-25T15:56:37.219Z,16.94
2017-03-25T15:57:51.117Z,16.92
2017-03-25T15:59:05.418Z,16.98
2017-03-25T16:00:19.791Z,16.95
2017-03-25T16:01:36.054Z,16.97
2017-03-25T16:02:50.804Z,16.79
2017-03-25T16:04:04.627Z,16.95
2017-03-25T16:05:18.918Z,16.94
2017-03-25T16:06:32.737Z,16.77
2017-03-25T16:07:46.954Z,16.89
2017-03-25T16:09:01.447Z,16.8
2017-03-25T16:10:15.106Z,16.69
2017-03-25T16:11:28.523Z,16.77
2017-03-25T16:12:42.183Z,16.74
2017-03-25T16:13:55.677Z,16.68
2017-03-25T16:15:09.945Z,16.79
2017-03-25T16:16:23.493Z,16.82
2017-03-25T16:17:37.212Z,16.69
2017-03-25T16:18:51.377Z,16.68
2017-03-25T16:20:28.003Z,16.68